메인 페이지
METAR-TAF:

METAR-TAF

공항 :

팔마데마요르카, 스페인

위도: 39-33N, 경도: 002-44E, 고도: 4m

현재 날씨관측

예보는 25분 전, 07:00시(UTC)에 발표되었습니다.
서북서7kt서남서풍과 북서풍을 오가는
온도 19°C
습도 73%
기압 1010 hPa
시정 10km 이상
고도 3000ft 상공 구름 조금
약한비

METAR: LEPA 100700Z 29007KT 250V320 9999 -RA FEW030 19/14 Q1010 NOSIG

시각: 09:25 (07:25 UTC)

예보

예보는 2 시간 25분 전, 05:00시(UTC)에 발표되었습니다.
예보 대상 시간: 10일 06시부터 11일 06시까지 (UTC)
서남서6kt
시정 10km 이상
고도 3000ft 상공 구름 조금
확률 40% :
일시적
10일 06시부터 10일 15시까지 (UTC)
시정: 2000m
고도 1500ft 상공 구름 조금, 타워링 적운.
소나기
전환 중
10일 07시부터 10일 09시까지 (UTC)
남서10kt

TAF: LEPA 100500Z 1006/1106 25006KT 9999 FEW030 TX19/1013Z TN15/1006Z PROB40 TEMPO 1006/1015 2000 SHRA FEW015TCU BECMG 1007/1009 22010KT

4,000개 이상의 공항 관측 자료 및 예보 (METAR 및 TAF 보고).

지도상에서 검색 가능한 기상관측소가 노란 점과 빨간 점으로 표시되어 있습니다.

기상관측소 명을 보려면 표시 위로 마우스를 이동하세요.

날씨 관측과 예보를 보려면 클릭하세요.

지도 변경 : 확대하려면 엑스 표시가 있는 녹색 버튼, 축소하려면 빼기 표시가 있는 녹색 버튼, 다음 페이지의 지도를 보려면 녹색 화살표를 클릭하세요.


METAR-TAF: